• Join FlightAware (Why Join?)
  • Login
  • US Flag 
07:24AM EDT


 

Airport Tracker/Info


-or-


 

Live Flight TrackerFlight Track Log ✈ CPZ5846 ✈ 23-Apr-2012 ✈ KBZN - KMSP

Flight Track Log - Related Links

Times and Time Zones

All times are in EDT time to prevent confusion due to time zone crossing. See the CPZ5846 flight status page for this flight to view local times or setup timezone preferences in your user account.

Time Position Orientation Groundspeed Altitude Reporting Facility
EDT Latitude Longitude Course Direction KTS MPH feet Rate Location/Type
05:09PM 45.6678 -111.0100 318° Northwest  Level FlightAware Approximate
05:10PM 45.6379 -110.8495 302° West  Level FlightAware Approximate
05:10PM 45.7594 -111.1275 134° Southeast 199 229 5,300  Level Salt Lake Center
05:11PM 45.7136 -111.0606 133° Southeast 215 247 6,400 1,800 Climbing Salt Lake Center
05:12PM 45.6658 -110.9864 99° East 244 281 9,100 2,040 Climbing Salt Lake Center
05:13PM 45.6533 -110.8744 92° East 277 319 10,700 1,980 Climbing Salt Lake Center
05:15PM 45.6506 -110.7403 87° East 323 372 13,200 2,280 Climbing Salt Lake Center
05:16PM 45.6553 -110.5997 74° East 360 414 15,400 2,400 Climbing Salt Lake Center
05:17PM 45.6842 -110.4508 72° East 375 432 18,200 2,460 Climbing Salt Lake Center
05:18PM 45.7203 -110.2889 73° East 383 441 20,500 2,040 Climbing Salt Lake Center
05:19PM 45.7511 -110.1450 78° East 392 451 22,500 1,920 Climbing Salt Lake Center
05:20PM 45.7761 -109.9697 92° East 403 464 24,500 1,680 Climbing Salt Lake Center
05:21PM 45.7728 -109.8108 91° East 418 481 26,000 1,200 Climbing Salt Lake Center
05:22PM 45.7697 -109.6414 92° East 439 505 27,000 1,200 Climbing Salt Lake Center
05:23PM 45.7644 -109.4417 92° East 447 514 28,500 1,380 Climbing Salt Lake Center
05:24PM 45.7597 -109.2683 93° East 453 521 29,900 1,200 Climbing Salt Lake Center
05:25PM 45.7533 -109.0667 93° East 453 521 31,000 960 Climbing Salt Lake Center
05:26PM 45.7472 -108.8956 93° East 450 518 32,000 1,200 Climbing Salt Lake Center
05:27PM 45.7397 -108.6950 93° East 451 519 33,500 1,200 Climbing Salt Lake Center
05:28PM 45.7342 -108.5208 93° East 457 526 34,500 720 Climbing Salt Lake Center
05:29PM 45.7269 -108.3203 92° East 451 519 35,000 480 Climbing Salt Lake Center
05:30PM 45.7217 -108.1431 93° East 459 528 35,600 840 Climbing Salt Lake Center
05:31PM 45.7147 -107.9678 93° East 459 528 36,800 660 Climbing Salt Lake Center
05:32PM 45.7064 -107.7667 93° East 454 522 37,000 60 Climbing Salt Lake Center
05:33PM 45.6989 -107.5900 94° East 460 529 37,000  Level Salt Lake Center
05:34PM 45.6894 -107.3792 94° East 471 542 37,000  Level Salt Lake Center
05:35PM 45.6814 -107.1986 93° East 473 544 37,000  Level Salt Lake Center
05:36PM 45.6742 -106.9906 94° East 470 541 37,000  Level Salt Lake Center
05:37PM 45.6656 -106.8106 95° East 471 542 37,000  Level Salt Lake Center
05:38PM 45.6536 -106.6011 94° East 472 543 37,000  Level Salt Lake Center
05:39PM 45.6444 -106.4228 95° East 471 542 37,000  Level Salt Lake Center
05:40PM 45.6344 -106.2447 94° East 470 541 37,000  Level Salt Lake Center
05:41PM 45.6236 -106.0361 95° East 471 542 37,000  Level Salt Lake Center
05:42PM 45.6136 -105.8578 95° East 471 542 37,000  Level Salt Lake Center
05:43PM 45.6006 -105.6517 95° East 469 540 37,000  Level Salt Lake Center
05:44PM 45.5900 -105.4753 95° East 467 537 37,000  Level Salt Lake Center
05:45PM 45.5772 -105.2703 95° East 465 535 37,000  Level Salt Lake Center
05:47PM 45.5656 -105.0925 96° East 468 539 37,000  Level Salt Lake Center
05:48PM 45.5514 -104.8878 95° East 466 536 37,000  Level Salt Lake Center
05:49PM 45.5400 -104.7117 95° East 466 536 37,000  Level Salt Lake Center
05:50PM 45.5261 -104.5058 96° East 467 537 37,000  Level Salt Lake Center
05:51PM 45.5133 -104.3286 96° East 467 537 37,000  Level Salt Lake Center
05:52PM 45.5000 -104.1528 96° East 467 537 37,000  Level Salt Lake Center
05:53PM 45.4850 -103.9469 96° East 468 539 37,000  Level Salt Lake Center
05:54PM 45.4708 -103.7525 97° East 471 542 37,000  Level Salt Lake Center
05:55PM 45.4564 -103.5736 96° East 473 544 37,000  Level Salt Lake Center
05:56PM 45.4397 -103.3667 96° East 472 543 37,000  Level Salt Lake Center
05:57PM 45.4256 -103.1900 97° East 471 542 37,000  Level Salt Lake Center
05:58PM 45.4086 -102.9828 97° East 471 542 37,000  Level Salt Lake Center
05:59PM 45.3936 -102.8036 98° East 473 544 37,000  Level Salt Lake Center
06:00PM 45.3742 -102.5969 97° East 473 544 37,000  Level Salt Lake Center
06:01PM 45.3589 -102.4214 98° East 472 543 37,000  Level Salt Lake Center
06:02PM 45.3419 -102.2431 98° East 469 540 37,000  Level Minneapolis Center
06:03PM 45.3247 -102.0628 97° East 469 540 37,000  Level Minneapolis Center
06:04PM 45.3092 -101.8797 98° East 469 540 37,000  Level Minneapolis Center
06:05PM 45.2917 -101.6967 98° East 469 540 37,000  Level Minneapolis Center
06:06PM 45.2733 -101.5164 97° East 469 540 37,000  Level Minneapolis Center
06:07PM 45.2572 -101.3308 97° East 469 540 37,000  Level Minneapolis Center
06:08PM 45.2406 -101.1483 99° East 469 540 37,000  Level Minneapolis Center
06:09PM 45.2194 -100.9681 98° East 469 540 37,000  Level Minneapolis Center
06:10PM 45.2022 -100.7856 98° East 469 540 37,000  Level Minneapolis Center
06:11PM 45.1847 -100.6033 99° East 469 540 37,000  Level Minneapolis Center
06:12PM 45.1631 -100.4178 99° East 469 540 37,000  Level Minneapolis Center
06:13PM 45.1417 -100.2203 98° East 469 540 37,000  Level Minneapolis Center
06:14PM 45.1236 -100.0356 98° East 469 540 37,000  Level Minneapolis Center
06:15PM 45.1033 -99.8444 99° East 479 551 37,000  Level Minneapolis Center
06:16PM 45.0822 -99.6625 100° East 479 551 37,000  Level Minneapolis Center
06:17PM 45.0589 -99.4747 99° East 479 551 37,000  Level Minneapolis Center
06:18PM 45.0394 -99.2931 100° East 474 545 37,000  Level Minneapolis Center
06:19PM 45.0186 -99.1292 100° East 474 545 37,000  Level Minneapolis Center
06:20PM 44.9964 -98.9447 101° East 474 545 37,000  Level Minneapolis Center
06:21PM 44.9719 -98.7603 99° East 474 545 37,000  Level Minneapolis Center
06:22PM 44.9514 -98.5733 101° East 474 545 37,000  Level Minneapolis Center
06:23PM 44.9264 -98.3892 99° East 474 545 37,000  Level Minneapolis Center
06:24PM 44.9050 -98.2056 100° East 469 540 37,000  Level Minneapolis Center
06:25PM 44.8814 -98.0244 100° East 474 545 37,000  Level Minneapolis Center
06:26PM 44.8575 -97.8411 101° East 474 545 37,000  Level Minneapolis Center
06:27PM 44.8297 -97.6367 100° East 474 545 37,000  Level Minneapolis Center
06:28PM 44.8072 -97.4594 101° East 474 545 37,000  Level Minneapolis Center
06:29PM 44.7822 -97.2764 93° East 469 540 37,000  Level Minneapolis Center
06:30PM 44.7758 -97.0944 93° East 469 540 37,000  Level Minneapolis Center
06:31PM 44.7692 -96.9128 94° East 463 533 37,000  Level Minneapolis Center
06:32PM 44.7614 -96.7514 92° East 463 533 37,000  Level Minneapolis Center
06:33PM 44.7564 -96.5669 93° East 463 533 37,000  Level Minneapolis Center
06:34PM 44.7486 -96.3881 93° East 463 533 37,000  Level Minneapolis Center
06:35PM 44.7408 -96.2094 94° East 463 533 37,000  Level Minneapolis Center
06:36PM 44.7306 -96.0247 93° East 463 533 37,000  Level Minneapolis Center
06:37PM 44.7225 -95.8286 94° East 463 533 37,000  Level Minneapolis Center
06:38PM 44.7136 -95.6500 94° East 463 533 37,000 -1,500 Level Minneapolis Center
06:39PM 44.7044 -95.4686 94° East 463 533 34,100 -3,060 Descending Minneapolis Center
06:40PM 44.6950 -95.2931 95° East 463 533 30,900 -2,940 Descending Minneapolis Center
06:41PM 44.6850 -95.1322 94° East 463 533 28,300 -2,880 Descending Minneapolis Center
06:42PM 44.6772 -94.9597 95° East 457 526 25,200 -3,060 Descending Minneapolis Center
06:43PM 44.6667 -94.7931 94° East 446 513 22,200 -3,000 Descending Minneapolis Center
06:45PM 44.6531 -94.5039 94° East 400 460 17,000 -2,940 Descending FAA TRACON SMA TRACON (SMA)
06:45PM 44.6481 -94.4108 80° East 387 445 15,300 -2,640 Descending FAA TRACON SMA TRACON (SMA)
06:46PM 44.6603 -94.3147 73° East 360 414 13,500 -2,580 Descending FAA TRACON SMA TRACON (SMA)
06:47PM 44.6792 -94.2253 72° East 342 394 11,900 -1,920 Descending FAA TRACON SMA TRACON (SMA)
06:47PM 44.6964 -94.1500 73° East 326 375 11,000 -720 Descending FAA TRACON SMA TRACON (SMA)
06:48PM 44.7142 -94.0658 73° East 329 379 11,000  Level FAA TRACON SMA TRACON (SMA)
06:49PM 44.7331 -93.9803 73° East 331 381 11,000  Level FAA TRACON SMA TRACON (SMA)
06:49PM 44.7500 -93.9044 73° East 330 380 11,000  Level FAA TRACON SMA TRACON (SMA)
06:50PM 44.7683 -93.8192 72° East 330 380 11,000  Level FAA TRACON SMA TRACON (SMA)
06:51PM 44.7878 -93.7339 73° East 332 382 11,000 -120 Level FAA TRACON SMA TRACON (SMA)
06:51PM 44.8039 -93.6575 73° East 330 380 10,900 -480 Descending FAA TRACON SMA TRACON (SMA)
06:52PM 44.8214 -93.5769 72° East 307 353 10,400 -1,320 Descending FAA TRACON SMA TRACON (SMA)
06:53PM 44.8383 -93.5025 73° East 287 330 9,200 -1,140 Descending FAA TRACON SMA TRACON (SMA)
06:53PM 44.8531 -93.4358 89° East 290 334 8,900 -780 Descending FAA TRACON SMA TRACON (SMA)
06:54PM 44.8539 -93.3603 157° South 298 343 8,200 -780 Descending FAA TRACON SMA TRACON (SMA)
06:55PM 44.8056 -93.3319 178° South 281 323 7,900 -540 Descending FAA TRACON SMA TRACON (SMA)
06:55PM 44.7644 -93.3300 179° South 236 272 7,500 -1,020 Descending FAA TRACON SMA TRACON (SMA)
06:56PM 44.7208 -93.3286 179° South 225 259 6,600 -1,140 Descending FAA TRACON SMA TRACON (SMA)
06:57PM 44.6789 -93.3272 156° South 217 250 6,000 -720 Descending FAA TRACON SMA TRACON (SMA)
06:57PM 44.6433 -93.3053 67° East 225 259 5,700 -900 Descending FAA TRACON SMA TRACON (SMA)
06:58PM 44.6561 -93.2631 25° Northeast 221 254 4,800 -1,440 Descending FAA TRACON SMA TRACON (SMA)
06:59PM 44.6903 -93.2406 23° Northeast 195 224 3,800 -1,380 Descending FAA TRACON SMA TRACON (SMA)
06:59PM 44.7247 -93.2197 14° North 195 224 3,000 -600 Descending FAA TRACON SMA TRACON (SMA)
07:00PM 44.7544 -93.2094 352° North 177 204 3,000 -480 Level FAA TRACON SMA TRACON (SMA)
07:01PM 44.7864 -93.2156 350° North 164 189 2,400 -840 Descending FAA TRACON SMA TRACON (SMA)
07:01PM 44.8125 -93.2222 349° North 134 154 1,900 -720 Descending FAA TRACON SMA TRACON (SMA)
07:02PM 44.8347 -93.2281 349° North 131 151 1,500 -720 Descending FAA TRACON SMA TRACON (SMA)
07:03PM 44.8594 -93.2350 349° North 131 151 1,000 -780 Descending FAA TRACON SMA TRACON (SMA)